Time;durP1;ratioP1;P1;durP2;ratioP2;P2;SDS_P1;SDS_P2;PMS_P1;PMS_P2;Temp;Humidity;BMP_temperature;BMP_pressure;BME280_temperature;BME280_humidity;BME280_pressure;Samples;Min_cycle;Max_cycle;Signal;HPM_P1;HPM_P2
2022/06/18 00:00:37;;;;;;;;;;;;;;;;;;5013075;28;964;-73
2022/06/18 00:03:03;;;;;;;;;;;;;;;;;;5013009;28;1922;-73
2022/06/18 00:05:30;;;;;;;;;;;;;;;;;;5013114;28;688;-73
2022/06/18 00:07:57;;;;;;;;;;;;;;;;;;5012557;28;1251;-73
2022/06/18 00:10:24;;;;;;;;;;;;;;;;;;5013012;28;887;-73
2022/06/18 00:15:35;;;;;;;;;;;;;;;;;;4994838;28;1091;-73
2022/06/18 00:18:01;;;;;;;;;;;;;;;;;;5012368;28;1094;-74
2022/06/18 00:20:28;;;;;;;;;;;;;;;;;;5012439;28;938;-73
2022/06/18 00:22:56;;;;;;;;;;;;;;;;;;5012573;28;1914;-73
2022/06/18 00:25:23;;;;;;;;;;;;;;;;;;5012562;28;922;-73
2022/06/18 00:27:49;;;;;;;;;;;;;;;;;;5012204;28;1334;-74
2022/06/18 00:30:17;;;;;;;;;;;;;;;;;;4994872;28;1052;-73
2022/06/18 00:32:44;;;;;;;;;;;;;;;;;;4994642;28;1305;-73
2022/06/18 00:35:11;;;;;;;;;;;;;;;;;;5012397;28;1084;-73
2022/06/18 00:37:38;;;;;;;;;;;;;;;;;;5012054;28;1303;-73
2022/06/18 00:40:10;;;;;;;;;;;;;;;;;;4994829;28;1189;-73
2022/06/18 00:42:37;;;;;;;;;;;;;;;;;;5011955;28;1918;-73
2022/06/18 00:45:03;;;;;;;;;;;;;;;;;;4994651;28;2488;-73
2022/06/18 00:47:31;;;;;;;;;;;;;;;;;;4994072;28;1427;-72
2022/06/18 00:49:59;;;;;;;;;;;;;;;;;;4994604;28;1635;-73
2022/06/18 00:52:28;;;;;;;;;;;;;;;;;;4994552;28;1336;-73
2022/06/18 00:54:56;;;;;;;;;;;;;;;;;;4993698;28;1237;-73
2022/06/18 00:57:28;;;;;;;;;;;;;;;;;;4993877;28;1339;-73
2022/06/18 00:59:55;;;;;;;;;;;;;;;;;;4994443;28;1368;-73
2022/06/18 01:02:22;;;;;;;;;;;;;;;;;;4994180;28;2094;-74
2022/06/18 01:04:48;;;;;;;;;;;;;;;;;;4994355;28;1212;-73
2022/06/18 01:07:16;;;;;;;;;;;;;;;;;;4993328;28;1353;-73
2022/06/18 01:09:43;;;;;;;;;;;;;;;;;;4993617;28;913;-73
2022/06/18 01:12:09;;;;;;;;;;;;;;;;;;4993756;28;1224;-73
2022/06/18 01:14:37;;;;;;;;;;;;;;;;;;5011354;28;795;-73
2022/06/18 01:17:04;;;;;;;;;;;;;;;;;;4993418;28;1501;-73
2022/06/18 01:19:31;;;;;;;;;;;;;;;;;;5011268;28;839;-73
2022/06/18 01:22:00;;;;;;;;;;;;;;;;;;5011424;28;1910;-73
2022/06/18 01:24:33;;;;;;;;;;;;;;;;;;4993862;28;1243;-73
2022/06/18 01:27:00;;;;;;;;;;;;;;;;;;4993362;28;1365;-73
2022/06/18 01:29:26;;;;;;;;;;;;;;;;;;4993835;28;1153;-73
2022/06/18 01:31:53;;;;;;;;;;;;;;;;;;5011359;28;787;-73
2022/06/18 01:34:21;;;;;;;;;;;;;;;;;;4993968;28;1327;-74
2022/06/18 01:36:52;;;;;;;;;;;;;;;;;;4993247;28;1432;-73
2022/06/18 01:39:22;;;;;;;;;;;;;;;;;;4993647;28;1306;-73
2022/06/18 01:41:51;;;;;;;;;;;;;;;;;;5010871;28;1918;-73
2022/06/18 01:44:28;;;;;;;;;;;;;;;;;;4993514;28;1770;-73
2022/06/18 01:46:55;;;;;;;;;;;;;;;;;;5010614;28;1331;-73
2022/06/18 01:49:22;;;;;;;;;;;;;;;;;;4993442;28;1206;-73
2022/06/18 01:51:49;;;;;;;;;;;;;;;;;;4989709;28;1528;-73
2022/06/18 01:54:22;;;;;;;;;;;;;;;;;;4974062;28;1534;-73
2022/06/18 01:56:52;;;;;;;;;;;;;;;;;;4989553;28;1317;-73
2022/06/18 01:59:19;;;;;;;;;;;;;;;;;;4990181;28;1684;-73
2022/06/18 02:01:46;;;;;;;;;;;;;;;;;;4990040;28;1340;-73
2022/06/18 02:04:13;;;;;;;;;;;;;;;;;;4989934;28;1981;-74
2022/06/18 02:06:39;;;;;;;;;;;;;;;;;;4991970;28;1310;-72
2022/06/18 02:09:07;;;;;;;;;;;;;;;;;;4995400;28;890;-73
2022/06/18 02:11:33;;;;;;;;;;;;;;;;;;4993812;28;935;-73
2022/06/18 02:14:02;;;;;;;;;;;;;;;;;;4995362;28;1068;-73
2022/06/18 02:16:30;;;;;;;;;;;;;;;;;;4977498;28;1278;-73
2022/06/18 02:18:58;;;;;;;;;;;;;;;;;;4977671;28;1149;-74
2022/06/18 02:21:25;;;;;;;;;;;;;;;;;;4993987;28;1277;-73
2022/06/18 02:23:52;;;;;;;;;;;;;;;;;;4977449;28;2534;-74
2022/06/18 02:26:18;;;;;;;;;;;;;;;;;;4994803;28;1417;-73
2022/06/18 02:28:44;;;;;;;;;;;;;;;;;;4993756;28;1225;-72
2022/06/18 02:31:14;;;;;;;;;;;;;;;;;;4993934;28;1657;-73
2022/06/18 02:33:40;;;;;;;;;;;;;;;;;;4977439;28;1168;-73
2022/06/18 02:36:11;;;;;;;;;;;;;;;;;;4994658;28;1318;-72
2022/06/18 02:38:37;;;;;;;;;;;;;;;;;;4977447;28;1104;-73
2022/06/18 02:41:04;;;;;;;;;;;;;;;;;;4993469;28;1208;-74
2022/06/18 02:43:30;;;;;;;;;;;;;;;;;;4993355;28;1972;-73
2022/06/18 02:45:56;;;;;;;;;;;;;;;;;;4993268;28;1309;-72
2022/06/18 02:48:26;;;;;;;;;;;;;;;;;;4993109;28;1199;-73
2022/06/18 02:50:52;;;;;;;;;;;;;;;;;;4993331;28;1200;-72
2022/06/18 02:53:18;;;;;;;;;;;;;;;;;;4993312;28;1325;-73
2022/06/18 02:55:46;;;;;;;;;;;;;;;;;;4992902;28;1345;-72
2022/06/18 02:58:17;;;;;;;;;;;;;;;;;;4993223;28;1317;-73
2022/06/18 03:00:43;;;;;;;;;;;;;;;;;;4976870;28;1247;-72
2022/06/18 03:03:11;;;;;;;;;;;;;;;;;;4993171;28;1930;-73
2022/06/18 03:05:39;;;;;;;;;;;;;;;;;;4992967;28;1412;-72
2022/06/18 03:08:05;;;;;;;;;;;;;;;;;;4993933;28;1013;-73
2022/06/18 03:13:27;;;;;;;;;;;;;;;;;;4956015;28;1393;-74
2022/06/18 03:15:54;;;;;;;;;;;;;;;;;;4976353;28;1333;-73
2022/06/18 03:18:21;;;;;;;;;;;;;;;;;;4992424;28;830;-73
2022/06/18 03:20:56;;;;;;;;;;;;;;;;;;4976849;28;1409;-73
2022/06/18 03:23:23;;;;;;;;;;;;;;;;;;4976335;28;1911;-72
2022/06/18 03:25:51;;;;;;;;;;;;;;;;;;4976455;28;1317;-73
2022/06/18 03:28:18;;;;;;;;;;;;;;;;;;4975923;28;1184;-72
2022/06/18 03:30:44;;;;;;;;;;;;;;;;;;4994110;28;776;-72
2022/06/18 03:33:11;;;;;;;;;;;;;;;;;;4976301;28;1235;-73
2022/06/18 03:35:37;;;;;;;;;;;;;;;;;;4976354;28;1408;-72
2022/06/18 03:38:05;;;;;;;;;;;;;;;;;;4975823;28;1244;-73
2022/06/18 03:40:31;;;;;;;;;;;;;;;;;;4976111;28;1173;-73
2022/06/18 03:42:58;;;;;;;;;;;;;;;;;;4976140;28;1910;-73
2022/06/18 03:45:24;;;;;;;;;;;;;;;;;;4976170;28;1044;-72
2022/06/18 03:47:50;;;;;;;;;;;;;;;;;;4975349;28;1802;-72
2022/06/18 03:50:19;;;;;;;;;;;;;;;;;;4976057;28;1292;-73
2022/06/18 03:52:46;;;;;;;;;;;;;;;;;;4975974;28;905;-73
2022/06/18 03:55:15;;;;;;;;;;;;;;;;;;4975982;28;1545;-73
2022/06/18 03:57:42;;;;;;;;;;;;;;;;;;4975247;28;1552;-73
2022/06/18 04:00:10;;;;;;;;;;;;;;;;;;4983219;28;1571;-73
2022/06/18 04:02:43;;;;;;;;;;;;;;;;;;5012472;28;1914;-73
2022/06/18 04:05:12;;;;;;;;;;;;;;;;;;4995148;28;1162;-73
2022/06/18 04:07:38;;;;;;;;;;;;;;;;;;4994639;28;1376;-73
2022/06/18 04:10:06;;;;;;;;;;;;;;;;;;5013261;28;1056;-73
2022/06/18 04:12:34;;;;;;;;;;;;;;;;;;4995576;28;1486;-73
2022/06/18 04:15:10;;;;;;;;;;;;;;;;;;4995347;28;1724;-73
2022/06/18 04:17:54;;;;;;;;;;;;;;;;;;4994144;28;1485;-72
2022/06/18 04:20:22;;;;;;;;;;;;;;;;;;4994906;28;1484;-74
2022/06/18 04:22:48;;;;;;;;;;;;;;;;;;4994827;28;1910;-74
2022/06/18 04:25:14;;;;;;;;;;;;;;;;;;4994894;28;1338;-73
2022/06/18 04:27:42;;;;;;;;;;;;;;;;;;4994111;28;1512;-74
2022/06/18 04:30:10;;;;;;;;;;;;;;;;;;4994938;28;1528;-74
2022/06/18 04:32:50;;;;;;;;;;;;;;;;;;4994803;28;1467;-74
2022/06/18 04:35:16;;;;;;;;;;;;;;;;;;4994703;28;1156;-74
2022/06/18 04:37:51;;;;;;;;;;;;;;;;;;4993774;28;1417;-74
2022/06/18 04:40:31;;;;;;;;;;;;;;;;;;4994508;28;1470;-73
2022/06/18 04:43:18;;;;;;;;;;;;;;;;;;4994337;28;1981;-72
2022/06/18 04:45:50;;;;;;;;;;;;;;;;;;4994320;28;1468;-72
2022/06/18 04:48:20;;;;;;;;;;;;;;;;;;4992359;28;1396;-72
2022/06/18 04:50:47;;;;;;;;;;;;;;;;;;4994941;28;1373;-73
2022/06/18 04:53:14;;;;;;;;;;;;;;;;;;4993511;28;1366;-73
2022/06/18 04:55:43;;;;;;;;;;;;;;;;;;5002287;28;1421;-72
2022/06/18 04:58:09;;;;;;;;;;;;;;;;;;4991547;28;1377;-71
2022/06/18 05:00:38;;;;;;;;;;;;;;;;;;4994833;28;1549;-73
2022/06/18 05:03:16;;;;;;;;;;;;;;;;;;5009431;28;1964;-73
2022/06/18 05:05:54;;;;;;;;;;;;;;;;;;5011503;28;1337;-71
2022/06/18 05:08:46;;;;;;;;;;;;;;;;;;4996012;28;1180;-72
2022/06/18 05:11:31;;;;;;;;;;;;;;;;;;5011849;28;794;-73
2022/06/18 05:14:04;;;;;;;;;;;;;;;;;;4993977;28;1209;-72
2022/06/18 05:16:34;;;;;;;;;;;;;;;;;;5010881;28;1299;-73
2022/06/18 05:19:00;;;;;;;;;;;;;;;;;;4994131;28;1296;-73
2022/06/18 05:21:26;;;;;;;;;;;;;;;;;;4994196;28;976;-73
2022/06/18 05:23:55;;;;;;;;;;;;;;;;;;4983967;28;1976;-73
2022/06/18 05:26:22;;;;;;;;;;;;;;;;;;4973653;28;1411;-73
2022/06/18 05:28:49;;;;;;;;;;;;;;;;;;4975113;28;1561;-72
2022/06/18 05:31:15;;;;;;;;;;;;;;;;;;5008274;28;1361;-71
2022/06/18 05:33:43;;;;;;;;;;;;;;;;;;5007286;28;1368;-73
2022/06/18 05:36:10;;;;;;;;;;;;;;;;;;4993600;28;1407;-73
2022/06/18 05:38:37;;;;;;;;;;;;;;;;;;5007199;28;1218;-73
2022/06/18 05:41:03;;;;;;;;;;;;;;;;;;4996577;28;1252;-73
2022/06/18 05:43:30;;;;;;;;;;;;;;;;;;4991766;28;1919;-72
2022/06/18 05:45:56;;;;;;;;;;;;;;;;;;4992594;28;1397;-73
2022/06/18 05:48:26;;;;;;;;;;;;;;;;;;4996730;28;1374;-73
2022/06/18 05:50:54;;;;;;;;;;;;;;;;;;4996209;28;1772;-73
2022/06/18 05:53:20;;;;;;;;;;;;;;;;;;4989848;28;1353;-72
2022/06/18 05:56:05;;;;;;;;;;;;;;;;;;5008881;28;1327;-72
2022/06/18 05:58:38;;;;;;;;;;;;;;;;;;4993789;28;1305;-74
2022/06/18 06:01:10;;;;;;;;;;;;;;;;;;4993318;28;1443;-74
2022/06/18 06:03:36;;;;;;;;;;;;;;;;;;4991534;28;2243;-74
2022/06/18 06:06:04;;;;;;;;;;;;;;;;;;5010847;28;1322;-73
2022/06/18 06:08:32;;;;;;;;;;;;;;;;;;4991860;28;1374;-73
2022/06/18 06:13:43;;;;;;;;;;;;;;;;;;4992043;28;1577;-75
2022/06/18 06:16:10;;;;;;;;;;;;;;;;;;5000453;28;1354;-74
2022/06/18 06:18:36;;;;;;;;;;;;;;;;;;5010674;28;792;-75
2022/06/18 06:21:03;;;;;;;;;;;;;;;;;;5008967;28;1338;-74
2022/06/18 06:23:30;;;;;;;;;;;;;;;;;;4997621;28;1985;-74
2022/06/18 06:25:56;;;;;;;;;;;;;;;;;;5009938;28;1407;-74
2022/06/18 06:28:23;;;;;;;;;;;;;;;;;;5005009;28;1457;-75
2022/06/18 06:30:49;;;;;;;;;;;;;;;;;;5007895;28;1445;-74
2022/06/18 06:33:16;;;;;;;;;;;;;;;;;;4989348;28;1187;-74
2022/06/18 06:35:43;;;;;;;;;;;;;;;;;;5006213;28;1322;-75
2022/06/18 06:38:11;;;;;;;;;;;;;;;;;;4992175;28;1182;-76
2022/06/18 06:40:37;;;;;;;;;;;;;;;;;;5010415;28;846;-75
2022/06/18 06:43:03;;;;;;;;;;;;;;;;;;5010311;28;1108;-76
2022/06/18 06:45:30;;;;;;;;;;;;;;;;;;5010317;28;1918;-75
2022/06/18 06:47:57;;;;;;;;;;;;;;;;;;5009695;28;1370;-76
2022/06/18 06:50:23;;;;;;;;;;;;;;;;;;5010346;28;1117;-75
2022/06/18 06:52:50;;;;;;;;;;;;;;;;;;4994113;28;1299;-75
2022/06/18 06:58:02;;;;;;;;;;;;;;;;;;4995772;28;1481;-75
2022/06/18 07:00:28;;;;;;;;;;;;;;;;;;5014101;28;934;-75
2022/06/18 07:02:54;;;;;;;;;;;;;;;;;;5013926;28;736;-75
2022/06/18 07:05:21;;;;;;;;;;;;;;;;;;5013874;28;1910;-73
2022/06/18 07:07:47;;;;;;;;;;;;;;;;;;5013198;28;1349;-76
2022/06/18 07:10:13;;;;;;;;;;;;;;;;;;5013532;28;803;-76
2022/06/18 07:12:41;;;;;;;;;;;;;;;;;;5013855;28;1146;-76
2022/06/18 07:15:07;;;;;;;;;;;;;;;;;;5013830;28;1072;-76
2022/06/18 07:17:34;;;;;;;;;;;;;;;;;;5012864;28;1426;-76
2022/06/18 07:20:00;;;;;;;;;;;;;;;;;;4996081;28;1145;-75
2022/06/18 07:22:26;;;;;;;;;;;;;;;;;;4995898;28;1291;-76
2022/06/18 07:24:53;;;;;;;;;;;;;;;;;;5013400;28;1928;-76
2022/06/18 07:27:19;;;;;;;;;;;;;;;;;;4995167;28;1332;-76
2022/06/18 07:29:46;;;;;;;;;;;;;;;;;;5013556;28;1068;-75
2022/06/18 07:32:13;;;;;;;;;;;;;;;;;;5013421;28;1073;-75
2022/06/18 07:34:39;;;;;;;;;;;;;;;;;;5013513;28;989;-76
2022/06/18 07:37:06;;;;;;;;;;;;;;;;;;5012764;28;1354;-75
2022/06/18 07:39:32;;;;;;;;;;;;;;;;;;5013367;28;1052;-74
2022/06/18 07:41:58;;;;;;;;;;;;;;;;;;4995682;28;954;-76
2022/06/18 07:44:25;;;;;;;;;;;;;;;;;;5013170;28;1915;-75
2022/06/18 07:46:52;;;;;;;;;;;;;;;;;;5012334;28;1313;-76
2022/06/18 07:49:19;;;;;;;;;;;;;;;;;;4995496;28;1219;-75
2022/06/18 07:51:46;;;;;;;;;;;;;;;;;;5013452;28;965;-74
2022/06/18 07:54:13;;;;;;;;;;;;;;;;;;4989111;28;1457;-76
2022/06/18 07:56:39;;;;;;;;;;;;;;;;;;4992542;28;1368;-76
2022/06/18 07:59:05;;;;;;;;;;;;;;;;;;4993456;28;1099;-75
2022/06/18 08:01:32;;;;;;;;;;;;;;;;;;4975853;28;1259;-75
2022/06/18 08:03:59;;;;;;;;;;;;;;;;;;4975484;28;1935;-77
2022/06/18 08:06:25;;;;;;;;;;;;;;;;;;4992446;28;1251;-75
2022/06/18 08:08:52;;;;;;;;;;;;;;;;;;4993440;28;744;-75
2022/06/18 08:11:18;;;;;;;;;;;;;;;;;;4993023;28;968;-73
2022/06/18 08:13:45;;;;;;;;;;;;;;;;;;4993380;28;966;-74
2022/06/18 08:16:12;;;;;;;;;;;;;;;;;;4992239;28;1334;-74
2022/06/18 08:18:39;;;;;;;;;;;;;;;;;;4975476;28;1128;-75
2022/06/18 08:21:07;;;;;;;;;;;;;;;;;;4992893;28;1312;-75
2022/06/18 08:23:34;;;;;;;;;;;;;;;;;;5002534;28;1228;-76
2022/06/18 08:26:00;;;;;;;;;;;;;;;;;;4998616;28;1956;-76
2022/06/18 08:28:26;;;;;;;;;;;;;;;;;;4987689;28;1323;-74
2022/06/18 08:30:53;;;;;;;;;;;;;;;;;;4984349;28;1268;-75
2022/06/18 08:33:19;;;;;;;;;;;;;;;;;;5009215;28;1259;-75
2022/06/18 08:35:45;;;;;;;;;;;;;;;;;;4998896;28;1400;-75
2022/06/18 08:38:13;;;;;;;;;;;;;;;;;;4991916;28;1094;-76
2022/06/18 08:40:45;;;;;;;;;;;;;;;;;;5009086;28;1086;-77
2022/06/18 08:43:30;;;;;;;;;;;;;;;;;;5011121;28;1057;-75
2022/06/18 08:45:58;;;;;;;;;;;;;;;;;;4993734;28;1978;-74
2022/06/18 08:48:27;;;;;;;;;;;;;;;;;;4992994;28;1243;-75
2022/06/18 08:50:56;;;;;;;;;;;;;;;;;;5011646;28;1126;-75
2022/06/18 08:53:44;;;;;;;;;;;;;;;;;;5010829;28;1394;-75
2022/06/18 08:56:12;;;;;;;;;;;;;;;;;;4991843;28;1500;-74
2022/06/18 08:58:40;;;;;;;;;;;;;;;;;;5000553;28;1232;-74
2022/06/18 09:01:08;;;;;;;;;;;;;;;;;;4980644;28;1444;-75
2022/06/18 09:03:37;;;;;;;;;;;;;;;;;;5000698;28;1276;-75
2022/06/18 09:06:06;;;;;;;;;;;;;;;;;;5001683;28;1922;-76
2022/06/18 09:08:42;;;;;;;;;;;;;;;;;;5000751;28;1217;-75
2022/06/18 09:11:24;;;;;;;;;;;;;;;;;;5003320;28;1306;-75
2022/06/18 09:13:54;;;;;;;;;;;;;;;;;;5012966;28;1920;-75
2022/06/18 09:16:20;;;;;;;;;;;;;;;;;;5015488;28;1298;-74
2022/06/18 09:18:48;;;;;;;;;;;;;;;;;;5002016;28;1268;-75
2022/06/18 09:21:16;;;;;;;;;;;;;;;;;;4991476;28;1120;-74
2022/06/18 09:23:43;;;;;;;;;;;;;;;;;;4991562;28;807;-73
2022/06/18 09:26:10;;;;;;;;;;;;;;;;;;4990499;28;1964;-72
2022/06/18 09:28:39;;;;;;;;;;;;;;;;;;4973863;28;1248;-75
2022/06/18 09:31:07;;;;;;;;;;;;;;;;;;4991248;28;906;-75
2022/06/18 09:33:34;;;;;;;;;;;;;;;;;;4991221;28;1522;-75
2022/06/18 09:36:02;;;;;;;;;;;;;;;;;;4991703;28;1399;-75
2022/06/18 09:38:29;;;;;;;;;;;;;;;;;;4973364;28;1089;-74
2022/06/18 09:40:56;;;;;;;;;;;;;;;;;;4991494;28;910;-75
2022/06/18 09:43:25;;;;;;;;;;;;;;;;;;4991288;28;962;-75
2022/06/18 09:45:54;;;;;;;;;;;;;;;;;;4973543;28;1929;-73
2022/06/18 09:48:20;;;;;;;;;;;;;;;;;;4990437;28;799;-75
2022/06/18 09:50:47;;;;;;;;;;;;;;;;;;4991450;28;1068;-75
2022/06/18 09:53:14;;;;;;;;;;;;;;;;;;4973751;28;1173;-75
2022/06/18 09:55:41;;;;;;;;;;;;;;;;;;4991362;28;1315;-75
2022/06/18 09:58:09;;;;;;;;;;;;;;;;;;5000482;28;1509;-75
2022/06/18 10:00:35;;;;;;;;;;;;;;;;;;5010874;28;812;-74
2022/06/18 10:03:04;;;;;;;;;;;;;;;;;;4993234;28;1438;-75
2022/06/18 10:08:16;;;;;;;;;;;;;;;;;;4992611;28;958;-74
2022/06/18 10:10:43;;;;;;;;;;;;;;;;;;5010683;28;1076;-75
2022/06/18 10:13:13;;;;;;;;;;;;;;;;;;5010743;28;1099;-76
2022/06/18 10:15:39;;;;;;;;;;;;;;;;;;5010746;28;1025;-75
2022/06/18 10:18:13;;;;;;;;;;;;;;;;;;5009904;28;1366;-75
2022/06/18 10:20:41;;;;;;;;;;;;;;;;;;5010710;28;863;-74
2022/06/18 10:23:10;;;;;;;;;;;;;;;;;;5010714;28;961;-75
2022/06/18 10:25:41;;;;;;;;;;;;;;;;;;5010464;28;1976;-75
2022/06/18 10:28:09;;;;;;;;;;;;;;;;;;4994468;28;1363;-74
2022/06/18 10:30:38;;;;;;;;;;;;;;;;;;5014529;28;1068;-74
2022/06/18 10:33:05;;;;;;;;;;;;;;;;;;4996919;28;1284;-75
2022/06/18 10:35:41;;;;;;;;;;;;;;;;;;4996992;28;1246;-75
2022/06/18 10:38:14;;;;;;;;;;;;;;;;;;5013912;28;1001;-74
2022/06/18 10:40:44;;;;;;;;;;;;;;;;;;5014419;28;1028;-74
2022/06/18 10:43:16;;;;;;;;;;;;;;;;;;5014398;28;1123;-73
2022/06/18 10:45:43;;;;;;;;;;;;;;;;;;5014202;28;1970;-72
2022/06/18 10:48:09;;;;;;;;;;;;;;;;;;4995900;28;1161;-75
2022/06/18 10:50:43;;;;;;;;;;;;;;;;;;5014115;28;1049;-76
2022/06/18 10:53:11;;;;;;;;;;;;;;;;;;5032986;23;2311;-74
2022/06/18 10:55:38;;;;;;;;;;;;;;;;;;5014006;28;1185;-76
2022/06/18 10:58:08;;;;;;;;;;;;;;;;;;5013557;28;945;-76
2022/06/18 11:00:35;;;;;;;;;;;;;;;;;;5013962;28;1134;-74
2022/06/18 11:03:02;;;;;;;;;;;;;;;;;;5014097;28;1242;-77
2022/06/18 11:05:28;;;;;;;;;;;;;;;;;;5014083;28;1977;-75
2022/06/18 11:07:56;;;;;;;;;;;;;;;;;;5012167;28;1497;-76
2022/06/18 11:10:38;;;;;;;;;;;;;;;;;;5014208;28;1068;-77
2022/06/18 11:13:04;;;;;;;;;;;;;;;;;;5011521;28;1501;-76
2022/06/18 11:15:31;;;;;;;;;;;;;;;;;;5014057;28;1076;-76
2022/06/18 11:17:58;;;;;;;;;;;;;;;;;;5013187;28;799;-76
2022/06/18 11:20:25;;;;;;;;;;;;;;;;;;5014116;28;830;-76
2022/06/18 11:22:52;;;;;;;;;;;;;;;;;;5012524;28;1388;-76
2022/06/18 11:25:25;;;;;;;;;;;;;;;;;;5013843;28;1906;-74
2022/06/18 11:27:51;;;;;;;;;;;;;;;;;;5013508;28;1036;-75
2022/06/18 11:30:19;;;;;;;;;;;;;;;;;;5014619;28;949;-75
2022/06/18 11:32:46;;;;;;;;;;;;;;;;;;5015291;28;1400;-77
2022/06/18 11:35:17;;;;;;;;;;;;;;;;;;5014319;28;1053;-77
2022/06/18 11:37:43;;;;;;;;;;;;;;;;;;5013204;28;838;-77
2022/06/18 11:40:17;;;;;;;;;;;;;;;;;;5013433;28;747;-76
2022/06/18 11:42:45;;;;;;;;;;;;;;;;;;5013497;28;1308;-75
2022/06/18 11:45:21;;;;;;;;;;;;;;;;;;5013509;28;1918;-75
2022/06/18 11:47:49;;;;;;;;;;;;;;;;;;5012842;28;917;-76
2022/06/18 11:50:15;;;;;;;;;;;;;;;;;;5013557;28;984;-75
2022/06/18 11:52:43;;;;;;;;;;;;;;;;;;5011681;28;1431;-75
2022/06/18 11:55:17;;;;;;;;;;;;;;;;;;5013315;28;1060;-76
2022/06/18 11:57:45;;;;;;;;;;;;;;;;;;4999700;28;1471;-75
2022/06/18 12:00:14;;;;;;;;;;;;;;;;;;4993877;28;788;-75
2022/06/18 12:02:44;;;;;;;;;;;;;;;;;;4993192;28;1381;-75
2022/06/18 12:05:10;;;;;;;;;;;;;;;;;;4993468;28;1910;-78
2022/06/18 12:07:38;;;;;;;;;;;;;;;;;;4993106;28;1012;-76
2022/06/18 12:10:04;;;;;;;;;;;;;;;;;;4993425;28;934;-78
2022/06/18 12:12:37;;;;;;;;;;;;;;;;;;4993150;28;1303;-76
2022/06/18 12:15:06;;;;;;;;;;;;;;;;;;4993277;28;1021;-76
2022/06/18 12:17:33;;;;;;;;;;;;;;;;;;4975141;28;1225;-76
2022/06/18 12:20:00;;;;;;;;;;;;;;;;;;4993420;28;749;-75
2022/06/18 12:22:27;;;;;;;;;;;;;;;;;;4992996;28;1316;-74
2022/06/18 12:24:55;;;;;;;;;;;;;;;;;;4993362;28;986;-75
2022/06/18 12:27:23;;;;;;;;;;;;;;;;;;4992221;28;1977;-75
2022/06/18 12:30:06;;;;;;;;;;;;;;;;;;4993001;28;1072;-74
2022/06/18 12:32:38;;;;;;;;;;;;;;;;;;4992987;28;1306;-75
2022/06/18 12:35:08;;;;;;;;;;;;;;;;;;4992817;28;1023;-75
2022/06/18 12:37:38;;;;;;;;;;;;;;;;;;4991814;28;1056;-75
2022/06/18 12:40:07;;;;;;;;;;;;;;;;;;4992596;28;1416;-75
2022/06/18 12:42:34;;;;;;;;;;;;;;;;;;4992404;28;1323;-75
2022/06/18 12:45:02;;;;;;;;;;;;;;;;;;4992537;28;834;-74
2022/06/18 12:47:31;;;;;;;;;;;;;;;;;;4974111;28;1918;-75
2022/06/18 12:50:00;;;;;;;;;;;;;;;;;;4992272;28;1064;-75
2022/06/18 12:52:30;;;;;;;;;;;;;;;;;;4974616;28;1321;-75
2022/06/18 12:55:02;;;;;;;;;;;;;;;;;;4992515;28;1068;-76
2022/06/18 12:57:34;;;;;;;;;;;;;;;;;;4992528;28;1238;-75
2022/06/18 13:00:04;;;;;;;;;;;;;;;;;;4992276;28;1094;-75
2022/06/18 13:02:35;;;;;;;;;;;;;;;;;;4975736;28;1338;-78
2022/06/18 13:05:09;;;;;;;;;;;;;;;;;;4998715;28;2036;-79
2022/06/18 13:07:38;;;;;;;;;;;;;;;;;;5011625;28;1973;-78
2022/06/18 13:10:05;;;;;;;;;;;;;;;;;;5012645;28;1049;-78
2022/06/18 13:12:42;;;;;;;;;;;;;;;;;;5013222;28;1369;-77
2022/06/18 13:15:13;;;;;;;;;;;;;;;;;;5011639;28;1084;-76
2022/06/18 13:17:41;;;;;;;;;;;;;;;;;;5009274;28;1505;-76
2022/06/18 13:20:10;;;;;;;;;;;;;;;;;;5011482;28;1067;-76
2022/06/18 13:22:36;;;;;;;;;;;;;;;;;;5011270;28;1420;-75
2022/06/18 13:30:35;;;;;;;;;;;;;;;;;;5010029;28;962;-75
2022/06/18 13:33:04;;;;;;;;;;;;;;;;;;5010146;28;1380;-74
2022/06/18 13:35:32;;;;;;;;;;;;;;;;;;5011479;28;1158;-74
2022/06/18 13:37:59;;;;;;;;;;;;;;;;;;5010944;28;1107;-76
2022/06/18 13:40:28;;;;;;;;;;;;;;;;;;5011426;28;1084;-76
2022/06/18 13:42:58;;;;;;;;;;;;;;;;;;5009814;28;1328;-75
2022/06/18 13:45:28;;;;;;;;;;;;;;;;;;5011302;28;1072;-75
2022/06/18 13:47:56;;;;;;;;;;;;;;;;;;5010582;28;1911;-76
2022/06/18 13:50:25;;;;;;;;;;;;;;;;;;5011206;28;1060;-76
2022/06/18 13:52:51;;;;;;;;;;;;;;;;;;5011189;28;1319;-76
2022/06/18 13:55:29;;;;;;;;;;;;;;;;;;5011234;28;1259;-76
2022/06/18 13:57:55;;;;;;;;;;;;;;;;;;5010562;28;962;-76
2022/06/18 14:00:22;;;;;;;;;;;;;;;;;;4997039;28;1476;-78
2022/06/18 14:02:56;;;;;;;;;;;;;;;;;;4991086;28;1310;-77
2022/06/18 14:05:33;;;;;;;;;;;;;;;;;;4991497;28;1068;-77
2022/06/18 14:08:01;;;;;;;;;;;;;;;;;;4990594;28;1919;-75
2022/06/18 14:10:27;;;;;;;;;;;;;;;;;;4991452;28;855;-77
2022/06/18 14:12:54;;;;;;;;;;;;;;;;;;4991527;28;1333;-76
2022/06/18 14:15:23;;;;;;;;;;;;;;;;;;4991264;28;1057;-76
2022/06/18 14:17:50;;;;;;;;;;;;;;;;;;4990464;28;1113;-76
2022/06/18 14:20:22;;;;;;;;;;;;;;;;;;4973842;28;1401;-74
2022/06/18 14:22:57;;;;;;;;;;;;;;;;;;4973614;28;1342;-77
2022/06/18 14:25:24;;;;;;;;;;;;;;;;;;4990988;28;1119;-76
2022/06/18 14:27:51;;;;;;;;;;;;;;;;;;4990523;28;1982;-76
2022/06/18 14:30:19;;;;;;;;;;;;;;;;;;4991153;28;1123;-77
2022/06/18 14:32:48;;;;;;;;;;;;;;;;;;4973367;28;1315;-76
2022/06/18 14:35:27;;;;;;;;;;;;;;;;;;4973711;28;1207;-76
2022/06/18 14:37:53;;;;;;;;;;;;;;;;;;4992300;28;973;-76
2022/06/18 14:40:22;;;;;;;;;;;;;;;;;;4992181;28;1081;-75
2022/06/18 14:43:04;;;;;;;;;;;;;;;;;;4991931;28;1350;-76
2022/06/18 14:45:35;;;;;;;;;;;;;;;;;;4973378;28;1033;-76
2022/06/18 14:48:20;;;;;;;;;;;;;;;;;;4990094;28;1986;-76
2022/06/18 14:51:04;;;;;;;;;;;;;;;;;;4993031;28;2707;-76
2022/06/18 14:53:40;;;;;;;;;;;;;;;;;;5010039;28;1358;-76
2022/06/18 14:56:09;;;;;;;;;;;;;;;;;;5010243;28;1119;-75
2022/06/18 14:58:43;;;;;;;;;;;;;;;;;;5011357;28;787;-76
2022/06/18 15:01:12;;;;;;;;;;;;;;;;;;5009428;28;1318;-76
2022/06/18 15:03:42;;;;;;;;;;;;;;;;;;5008967;28;1287;-76
2022/06/18 15:06:10;;;;;;;;;;;;;;;;;;5009775;28;1972;-76
2022/06/18 15:08:38;;;;;;;;;;;;;;;;;;5008916;28;1232;-76
2022/06/18 15:11:05;;;;;;;;;;;;;;;;;;5010428;28;1065;-76
2022/06/18 15:13:35;;;;;;;;;;;;;;;;;;5007256;28;2067;-75
2022/06/18 15:16:15;;;;;;;;;;;;;;;;;;5010288;28;1797;-76
2022/06/18 15:18:52;;;;;;;;;;;;;;;;;;5013566;28;1152;-76
2022/06/18 15:21:28;;;;;;;;;;;;;;;;;;4994211;28;1416;-76
2022/06/18 15:23:59;;;;;;;;;;;;;;;;;;4994183;28;1112;-76
2022/06/18 15:26:26;;;;;;;;;;;;;;;;;;4993321;28;1983;-76
2022/06/18 15:28:53;;;;;;;;;;;;;;;;;;4994264;28;1121;-76
2022/06/18 15:31:21;;;;;;;;;;;;;;;;;;4994191;28;1399;-76
2022/06/18 15:33:50;;;;;;;;;;;;;;;;;;4994558;28;1068;-76
2022/06/18 15:36:21;;;;;;;;;;;;;;;;;;4994794;28;1080;-76
2022/06/18 15:38:55;;;;;;;;;;;;;;;;;;4994511;28;1116;-76
2022/06/18 15:41:21;;;;;;;;;;;;;;;;;;4993882;28;1322;-76
2022/06/18 15:43:48;;;;;;;;;;;;;;;;;;4994972;28;1225;-76
2022/06/18 15:46:16;;;;;;;;;;;;;;;;;;4993477;28;1910;-76
2022/06/18 15:48:46;;;;;;;;;;;;;;;;;;4994038;28;953;-77
2022/06/18 15:51:17;;;;;;;;;;;;;;;;;;4994400;28;1408;-78
2022/06/18 15:53:44;;;;;;;;;;;;;;;;;;4994775;28;820;-78
2022/06/18 15:56:11;;;;;;;;;;;;;;;;;;4996777;28;1507;-77
2022/06/18 15:58:37;;;;;;;;;;;;;;;;;;4994896;28;1088;-77
2022/06/18 16:01:03;;;;;;;;;;;;;;;;;;4997324;28;1108;-78
2022/06/18 16:03:30;;;;;;;;;;;;;;;;;;4997183;28;1373;-77
2022/06/18 16:05:57;;;;;;;;;;;;;;;;;;4995224;28;1065;-78
2022/06/18 16:08:33;;;;;;;;;;;;;;;;;;4993754;28;1922;-78
2022/06/18 16:11:14;;;;;;;;;;;;;;;;;;4995313;28;864;-77
2022/06/18 16:13:40;;;;;;;;;;;;;;;;;;4995154;28;950;-78
2022/06/18 16:16:06;;;;;;;;;;;;;;;;;;4995489;28;1068;-77
2022/06/18 16:18:33;;;;;;;;;;;;;;;;;;4994712;28;1769;-78
2022/06/18 16:21:00;;;;;;;;;;;;;;;;;;4994564;28;1104;-78
2022/06/18 16:23:27;;;;;;;;;;;;;;;;;;4995605;28;1417;-78
2022/06/18 16:25:55;;;;;;;;;;;;;;;;;;4995740;28;898;-78
2022/06/18 16:28:22;;;;;;;;;;;;;;;;;;4994280;28;1914;-77
2022/06/18 16:30:50;;;;;;;;;;;;;;;;;;4993061;28;1972;-77
2022/06/18 16:33:20;;;;;;;;;;;;;;;;;;4992999;28;1247;-77
2022/06/18 16:36:01;;;;;;;;;;;;;;;;;;4975444;28;1141;-77
2022/06/18 16:38:31;;;;;;;;;;;;;;;;;;4992225;28;1128;-78
2022/06/18 16:41:06;;;;;;;;;;;;;;;;;;4992846;28;906;-77
2022/06/18 16:43:33;;;;;;;;;;;;;;;;;;4993877;28;827;-78
2022/06/18 16:45:59;;;;;;;;;;;;;;;;;;4994431;28;965;-78
2022/06/18 16:48:37;;;;;;;;;;;;;;;;;;4992712;28;1915;-78
2022/06/18 16:51:03;;;;;;;;;;;;;;;;;;4994226;28;843;-78
2022/06/18 16:53:32;;;;;;;;;;;;;;;;;;4993538;28;1319;-78
2022/06/18 16:55:59;;;;;;;;;;;;;;;;;;5015059;23;4076;-76
2022/06/18 16:58:26;;;;;;;;;;;;;;;;;;5011160;28;1047;-75
2022/06/18 17:00:52;;;;;;;;;;;;;;;;;;5012044;28;1042;-76
2022/06/18 17:03:19;;;;;;;;;;;;;;;;;;5012049;28;735;-76
2022/06/18 17:05:45;;;;;;;;;;;;;;;;;;5010436;28;1416;-76
2022/06/18 17:08:14;;;;;;;;;;;;;;;;;;5010559;28;1915;-76
2022/06/18 17:10:40;;;;;;;;;;;;;;;;;;5011651;28;878;-76
2022/06/18 17:13:07;;;;;;;;;;;;;;;;;;5011421;28;787;-76
2022/06/18 17:15:34;;;;;;;;;;;;;;;;;;5011583;28;1301;-75
2022/06/18 17:18:00;;;;;;;;;;;;;;;;;;5010940;28;902;-76
2022/06/18 17:20:26;;;;;;;;;;;;;;;;;;5011462;28;1088;-75
2022/06/18 17:22:53;;;;;;;;;;;;;;;;;;5011265;28;944;-76
2022/06/18 17:33:33;;;;;;;;;;;;;;;;;;5011277;28;1076;-76
2022/06/18 17:36:00;;;;;;;;;;;;;;;;;;5010975;28;1337;-76
2022/06/18 17:38:26;;;;;;;;;;;;;;;;;;5009774;28;1052;-76
2022/06/18 17:41:03;;;;;;;;;;;;;;;;;;5010943;28;866;-75
2022/06/18 17:43:30;;;;;;;;;;;;;;;;;;5011613;28;1120;-76